createdAt,value
2019-02-04T00:01:21.560Z,99.90
2019-02-04T00:03:50.865Z,99.90
2019-02-04T00:06:20.148Z,99.90
2019-02-04T00:08:49.439Z,99.90
2019-02-04T00:11:18.650Z,99.90
2019-02-04T00:13:47.899Z,99.90
2019-02-04T00:16:17.090Z,99.90
2019-02-04T00:18:46.584Z,99.90
2019-02-04T00:21:15.801Z,99.90
2019-02-04T00:23:45.033Z,99.90
2019-02-04T00:26:14.645Z,99.90
2019-02-04T00:28:43.878Z,99.90
2019-02-04T00:31:13.155Z,99.90
2019-02-04T00:33:42.370Z,99.90
2019-02-04T00:36:11.593Z,99.90
2019-02-04T00:38:40.792Z,99.90
2019-02-04T00:41:10.021Z,99.90
2019-02-04T00:43:39.215Z,99.90
2019-02-04T00:46:08.444Z,99.90
2019-02-04T00:48:37.652Z,99.90
2019-02-04T00:51:06.909Z,99.90
2019-02-04T00:53:36.141Z,99.90
2019-02-04T00:56:06.316Z,99.90
2019-02-04T00:58:35.520Z,99.90
2019-02-04T01:01:06.061Z,99.90
2019-02-04T01:03:35.257Z,99.90
2019-02-04T01:06:04.711Z,99.90
2019-02-04T01:08:34.108Z,99.90
2019-02-04T01:11:03.913Z,99.90
2019-02-04T01:13:33.136Z,99.90
2019-02-04T01:16:02.753Z,99.90
2019-02-04T01:18:31.985Z,99.90
2019-02-04T01:21:01.183Z,99.90
2019-02-04T01:23:30.405Z,99.90
2019-02-04T01:25:59.682Z,99.90
2019-02-04T01:28:28.907Z,99.90
2019-02-04T01:30:58.113Z,99.90
2019-02-04T01:33:27.348Z,99.90
2019-02-04T01:35:56.541Z,99.90
2019-02-04T01:38:25.763Z,99.90
2019-02-04T01:40:54.951Z,99.90
2019-02-04T01:43:24.160Z,99.90
2019-02-04T01:45:53.381Z,99.90
2019-02-04T01:48:22.608Z,99.90
2019-02-04T01:50:51.804Z,99.90
2019-02-04T01:53:21.036Z,99.90
2019-02-04T01:55:50.252Z,99.90
2019-02-04T01:58:21.112Z,99.90
2019-02-04T02:00:50.298Z,99.90
2019-02-04T02:03:19.530Z,99.90
2019-02-04T02:05:48.725Z,99.90
2019-02-04T02:08:17.941Z,99.90
2019-02-04T02:10:47.136Z,99.90
2019-02-04T02:13:16.653Z,99.90
2019-02-04T02:15:45.904Z,99.90
2019-02-04T02:18:15.090Z,99.90
2019-02-04T02:20:44.261Z,99.90
2019-02-04T02:23:13.503Z,99.90
2019-02-04T02:25:42.716Z,99.90
2019-02-04T02:28:11.935Z,99.90
2019-02-04T02:30:41.135Z,99.90
2019-02-04T02:33:10.355Z,99.90
2019-02-04T02:35:39.568Z,99.90
2019-02-04T02:38:08.789Z,99.90
2019-02-04T02:40:38.068Z,99.90
2019-02-04T02:43:07.298Z,99.90
2019-02-04T02:45:36.536Z,99.90
2019-02-04T02:48:05.949Z,99.90
2019-02-04T02:50:35.174Z,99.90
2019-02-04T02:53:04.412Z,99.90
2019-02-04T02:55:33.713Z,99.90
2019-02-04T02:58:02.979Z,99.90
2019-02-04T03:00:32.208Z,99.90
2019-02-04T03:03:01.427Z,99.90
2019-02-04T03:05:30.652Z,99.90
2019-02-04T03:07:59.861Z,99.90
2019-02-04T03:10:32.377Z,99.90
2019-02-04T03:13:01.754Z,99.90
2019-02-04T03:15:30.998Z,99.90
2019-02-04T03:18:00.228Z,99.90
2019-02-04T03:20:29.453Z,99.90
2019-02-04T03:22:58.679Z,99.90
2019-02-04T03:25:27.908Z,99.90
2019-02-04T03:27:57.113Z,99.90
2019-02-04T03:30:34.282Z,99.90
2019-02-04T03:33:03.516Z,99.90
2019-02-04T03:35:32.716Z,99.90
2019-02-04T03:38:02.205Z,99.90
2019-02-04T03:40:32.977Z,99.90
2019-02-04T03:43:02.180Z,99.90
2019-02-04T03:45:31.405Z,99.90
2019-02-04T03:48:05.404Z,99.90
2019-02-04T03:50:31.476Z,99.90
2019-02-04T03:53:00.684Z,99.90
2019-02-04T03:55:29.912Z,99.90
2019-02-04T03:57:59.112Z,99.90
2019-02-04T04:00:33.460Z,99.90
2019-02-04T04:03:02.756Z,99.90
2019-02-04T04:05:31.957Z,99.90
2019-02-04T04:08:01.174Z,99.90
2019-02-04T04:10:30.410Z,99.90
2019-02-04T04:12:59.673Z,99.90
2019-02-04T04:15:28.894Z,99.90
2019-02-04T04:17:58.075Z,99.90
2019-02-04T04:20:27.304Z,99.90
2019-02-04T04:22:56.488Z,99.90
2019-02-04T04:25:25.708Z,99.90
2019-02-04T04:27:54.913Z,99.90
2019-02-04T04:30:26.111Z,99.90
2019-02-04T04:32:55.869Z,99.90
2019-02-04T04:35:25.187Z,99.90
2019-02-04T04:37:54.421Z,99.90
2019-02-04T04:40:23.744Z,99.90
2019-02-04T04:42:52.964Z,99.90
2019-02-04T04:45:23.611Z,99.90
2019-02-04T04:47:53.049Z,99.90
2019-02-04T04:50:22.844Z,99.90
2019-02-04T04:52:52.288Z,99.90
2019-02-04T04:55:25.267Z,99.90
2019-02-04T04:57:54.704Z,99.90
2019-02-04T05:00:26.821Z,99.90
2019-02-04T05:02:56.145Z,99.90
2019-02-04T05:05:25.384Z,99.90
2019-02-04T05:07:54.703Z,99.90
2019-02-04T05:10:24.204Z,99.90
2019-02-04T05:12:53.408Z,99.90
2019-02-04T05:15:25.090Z,99.90
2019-02-04T05:17:54.416Z,99.90
2019-02-04T05:20:24.252Z,99.90
2019-02-04T05:22:53.444Z,99.90
2019-02-04T05:25:22.633Z,99.90
2019-02-04T05:27:52.273Z,99.90
2019-02-04T05:30:22.752Z,99.90
2019-02-04T05:32:51.976Z,99.90
2019-02-04T05:35:21.261Z,99.90
2019-02-04T05:37:50.457Z,99.90
2019-02-04T05:40:19.880Z,99.90
2019-02-04T05:42:49.488Z,99.90
2019-02-04T05:45:19.446Z,99.90
2019-02-04T05:47:48.632Z,99.90
2019-02-04T05:50:18.612Z,99.90
2019-02-04T05:52:48.060Z,99.90
2019-02-04T05:55:18.767Z,99.90
2019-02-04T05:57:47.980Z,99.90
2019-02-04T06:00:25.868Z,99.90
2019-02-04T06:02:55.049Z,99.90
2019-02-04T06:05:24.288Z,99.90
2019-02-04T06:07:53.545Z,99.90
2019-02-04T06:10:22.752Z,99.90
2019-02-04T06:12:51.976Z,99.90
2019-02-04T06:15:21.222Z,99.90
2019-02-04T06:17:50.502Z,99.90
2019-02-04T06:20:20.889Z,99.90
2019-02-04T06:22:50.123Z,99.90
2019-02-04T06:25:19.427Z,99.90
2019-02-04T06:27:48.682Z,99.90
2019-02-04T06:30:18.755Z,99.90
2019-02-04T06:32:47.992Z,99.90
2019-02-04T06:35:17.917Z,99.90
2019-02-04T06:37:47.469Z,99.90
2019-02-04T06:40:16.703Z,99.90
2019-02-04T06:42:46.193Z,99.90
2019-02-04T06:45:15.808Z,99.90
2019-02-04T06:47:45.039Z,99.90
2019-02-04T06:50:15.438Z,99.90
2019-02-04T06:52:44.652Z,99.90
2019-02-04T06:55:16.420Z,99.90
2019-02-04T06:57:45.644Z,99.90
2019-02-04T07:00:16.445Z,99.90
2019-02-04T07:02:46.650Z,99.90
2019-02-04T07:05:16.851Z,99.90
2019-02-04T07:07:46.161Z,99.90
2019-02-04T07:10:17.733Z,99.90
2019-02-04T07:12:46.938Z,99.90
2019-02-04T07:15:16.495Z,99.90
2019-02-04T07:17:45.752Z,99.90
2019-02-04T07:20:20.586Z,99.90
2019-02-04T07:22:50.020Z,99.90
2019-02-04T07:25:21.353Z,99.90
2019-02-04T07:27:50.590Z,99.90
2019-02-04T07:30:21.781Z,99.90
2019-02-04T07:32:51.150Z,99.90
2019-02-04T07:35:20.711Z,99.90
2019-02-04T07:37:50.177Z,99.90
2019-02-04T07:40:24.581Z,99.90
2019-02-04T07:42:53.932Z,99.90
2019-02-04T07:45:23.670Z,99.90
2019-02-04T07:47:53.112Z,99.90
2019-02-04T07:50:22.417Z,99.90
2019-02-04T07:52:51.734Z,99.90
2019-02-04T07:55:20.984Z,99.90
2019-02-04T07:57:50.209Z,99.90
2019-02-04T08:00:21.957Z,99.90
2019-02-04T08:02:51.645Z,99.90
2019-02-04T08:05:20.870Z,99.90
2019-02-04T08:07:50.073Z,99.90
2019-02-04T08:10:19.308Z,99.90
2019-02-04T08:13:00.515Z,99.90
2019-02-04T08:15:22.244Z,99.90
2019-02-04T08:17:51.606Z,99.90
2019-02-04T08:20:22.716Z,97.50
2019-02-04T08:22:51.776Z,95.80
2019-02-04T08:25:21.011Z,95.70
2019-02-04T08:27:50.235Z,96.90
2019-02-04T08:30:24.761Z,95.70
2019-02-04T08:32:54.168Z,94.30
2019-02-04T08:35:24.359Z,93.60
2019-02-04T08:37:53.594Z,92.50
2019-02-04T08:40:22.831Z,91.30
2019-02-04T08:42:52.556Z,90.10
2019-02-04T08:45:21.901Z,89.40
2019-02-04T08:47:51.592Z,87.70
2019-02-04T08:50:21.482Z,87.00
2019-02-04T08:52:50.718Z,86.20
2019-02-04T08:55:20.057Z,85.10
2019-02-04T08:57:49.456Z,85.50
2019-02-04T09:00:22.123Z,84.30
2019-02-04T09:02:51.336Z,83.70
2019-02-04T09:05:21.636Z,83.10
2019-02-04T09:07:51.019Z,82.70
2019-02-04T09:10:23.745Z,83.20
2019-02-04T09:12:53.248Z,84.50
2019-02-04T09:15:22.753Z,83.90
2019-02-04T09:17:52.044Z,85.50
2019-02-04T09:20:21.251Z,86.10
2019-02-04T09:22:50.489Z,85.70
2019-02-04T09:25:19.716Z,86.10
2019-02-04T09:27:49.420Z,86.50
2019-02-04T09:30:20.821Z,86.50
2019-02-04T09:32:51.027Z,87.10
2019-02-04T09:35:20.685Z,87.60
2019-02-04T09:37:49.948Z,87.30
2019-02-04T09:40:24.881Z,86.40
2019-02-04T09:42:54.088Z,87.80
2019-02-04T09:45:26.971Z,88.40
2019-02-04T09:47:54.200Z,88.40
2019-02-04T09:50:24.120Z,88.50
2019-02-04T09:52:53.343Z,88.40
2019-02-04T09:55:25.038Z,90.10
2019-02-04T09:57:54.253Z,90.10
2019-02-04T10:00:26.300Z,90.50
2019-02-04T10:02:56.045Z,90.60
2019-02-04T10:05:25.256Z,90.80
2019-02-04T10:07:54.462Z,91.20
2019-02-04T10:10:25.329Z,91.50
2019-02-04T10:12:54.601Z,91.40
2019-02-04T10:15:26.180Z,91.00
2019-02-04T10:17:55.409Z,91.60
2019-02-04T10:20:33.556Z,91.50
2019-02-04T10:22:55.515Z,92.00
2019-02-04T10:25:27.175Z,92.40
2019-02-04T10:27:56.360Z,92.50
2019-02-04T10:30:25.673Z,92.70
2019-02-04T10:32:54.877Z,92.30
2019-02-04T10:35:25.265Z,92.90
2019-02-04T10:37:54.705Z,93.50
2019-02-04T10:40:25.024Z,93.40
2019-02-04T10:42:54.311Z,93.50
2019-02-04T10:45:23.978Z,93.60
2019-02-04T10:47:53.344Z,93.70
2019-02-04T10:50:45.092Z,94.00
2019-02-04T10:53:04.576Z,94.30
2019-02-04T10:55:33.813Z,94.80
2019-02-04T10:58:03.028Z,94.70
2019-02-04T11:00:33.725Z,95.40
2019-02-04T11:03:03.383Z,95.10
2019-02-04T11:05:34.374Z,95.20
2019-02-04T11:08:03.715Z,95.50
2019-02-04T11:10:35.399Z,95.70
2019-02-04T11:13:14.020Z,95.90
2019-02-04T11:15:44.057Z,96.10
2019-02-04T11:18:14.565Z,95.90
2019-02-04T11:20:44.136Z,96.20
2019-02-04T11:23:13.516Z,96.10
2019-02-04T11:25:43.898Z,96.30
2019-02-04T11:28:13.976Z,96.40
2019-02-04T11:30:58.322Z,96.40
2019-02-04T11:33:27.597Z,96.60
2019-02-04T11:35:56.803Z,96.00
2019-02-04T11:38:26.016Z,96.30
2019-02-04T11:40:55.772Z,96.20
2019-02-04T11:43:25.083Z,96.40
2019-02-04T11:45:55.044Z,96.30
2019-02-04T11:48:24.523Z,96.30
2019-02-04T11:50:53.721Z,96.20
2019-02-04T11:53:32.572Z,95.80
2019-02-04T11:55:53.964Z,95.90
2019-02-04T11:58:23.221Z,96.10
2019-02-04T12:00:52.796Z,95.50
2019-02-04T12:03:23.222Z,95.30
2019-02-04T12:05:52.493Z,94.80
2019-02-04T12:08:21.700Z,94.70
2019-02-04T12:10:57.205Z,94.80
2019-02-04T12:13:26.448Z,94.60
2019-02-04T12:15:58.085Z,94.10
2019-02-04T12:18:27.432Z,94.10
2019-02-04T12:20:56.674Z,94.00
2019-02-04T12:23:25.954Z,93.90
2019-02-04T12:25:55.144Z,94.00
2019-02-04T12:28:24.388Z,93.90
2019-02-04T12:30:53.752Z,94.00
2019-02-04T12:33:22.953Z,93.90
2019-02-04T12:35:52.185Z,93.90
2019-02-04T12:38:21.853Z,93.80
2019-02-04T12:40:51.025Z,93.50
2019-02-04T12:43:21.302Z,93.70
2019-02-04T12:45:50.696Z,93.50
2019-02-04T12:48:19.892Z,93.70
2019-02-04T12:50:49.141Z,93.30
2019-02-04T12:53:18.371Z,93.30
2019-02-04T12:55:47.572Z,93.50
2019-02-04T12:58:16.802Z,93.60
2019-02-04T13:00:46.012Z,93.00
2019-02-04T13:03:15.299Z,92.90
2019-02-04T13:05:50.203Z,93.10
2019-02-04T13:08:19.460Z,92.60
2019-02-04T13:10:48.679Z,92.90
2019-02-04T13:13:20.187Z,92.90
2019-02-04T13:15:49.515Z,92.80
2019-02-04T13:18:18.830Z,93.00
2019-02-04T13:20:48.029Z,92.50
2019-02-04T13:23:17.253Z,92.60
2019-02-04T13:25:46.665Z,92.50
2019-02-04T13:28:20.811Z,92.50
2019-02-04T13:30:50.028Z,92.30
2019-02-04T13:33:19.847Z,92.40
2019-02-04T13:35:49.060Z,92.20
2019-02-04T13:38:18.248Z,92.50
2019-02-04T13:40:47.471Z,92.50
2019-02-04T13:43:16.684Z,92.40
2019-02-04T13:45:46.012Z,92.50
2019-02-04T13:48:15.516Z,92.50
2019-02-04T13:50:47.994Z,92.70
2019-02-04T13:53:17.293Z,92.30
2019-02-04T13:55:46.533Z,92.50
2019-02-04T13:58:15.720Z,92.50
2019-02-04T14:00:44.924Z,92.30
2019-02-04T14:03:17.460Z,92.40
2019-02-04T14:05:45.236Z,92.60
2019-02-04T14:08:14.540Z,92.60
2019-02-04T14:10:46.169Z,92.70
2019-02-04T14:13:15.108Z,92.60
2019-02-04T14:15:44.697Z,92.40
2019-02-04T14:18:14.036Z,92.20
2019-02-04T14:20:43.331Z,92.30
2019-02-04T14:23:12.568Z,92.20
2019-02-04T14:25:42.096Z,92.10
2019-02-04T14:28:11.396Z,92.00
2019-02-04T14:30:41.080Z,92.00
2019-02-04T14:33:10.309Z,91.70
2019-02-04T14:35:39.521Z,91.90
2019-02-04T14:38:09.420Z,92.00
2019-02-04T14:40:39.162Z,91.90
2019-02-04T14:43:21.980Z,91.90
2019-02-04T14:46:35.089Z,91.80
2019-02-04T14:49:54.454Z,91.80
2019-02-04T14:52:46.630Z,91.90
2019-02-04T14:55:44.705Z,92.00
2019-02-04T14:58:48.361Z,91.90
2019-02-04T15:01:45.501Z,91.90
2019-02-04T15:04:55.390Z,91.90
2019-02-04T15:08:36.456Z,92.00
2019-02-04T15:11:27.809Z,92.10
2019-02-04T15:14:38.036Z,92.00
2019-02-04T15:17:34.181Z,91.90
2019-02-04T15:20:50.725Z,91.80
2019-02-04T15:24:08.067Z,91.80
2019-02-04T15:27:10.611Z,91.70
2019-02-04T15:30:04.700Z,91.60
2019-02-04T15:32:59.483Z,91.60
2019-02-04T15:36:09.923Z,91.50
2019-02-04T15:38:58.864Z,91.70
2019-02-04T15:42:04.832Z,91.70
2019-02-04T15:44:41.237Z,91.60
2019-02-04T15:47:24.357Z,91.80
2019-02-04T15:50:33.529Z,91.70
2019-02-04T15:53:02.847Z,91.60
2019-02-04T15:55:32.057Z,91.70
2019-02-04T15:58:01.285Z,91.50
2019-02-04T16:00:30.524Z,91.60
2019-02-04T16:02:59.739Z,91.60
2019-02-04T16:05:28.959Z,91.70
2019-02-04T16:07:58.186Z,91.70
2019-02-04T16:10:27.365Z,91.60
2019-02-04T16:12:56.548Z,91.50
2019-02-04T16:15:26.460Z,91.50
2019-02-04T16:17:55.669Z,91.60
2019-02-04T16:20:25.395Z,91.80
2019-02-04T16:22:58.558Z,91.70
2019-02-04T16:25:25.556Z,91.40
2019-02-04T16:27:54.793Z,91.60
2019-02-04T16:30:24.017Z,91.60
2019-02-04T16:32:53.656Z,91.30
2019-02-04T16:35:22.872Z,91.40
2019-02-04T16:37:52.180Z,91.30
2019-02-04T16:40:22.281Z,91.20
2019-02-04T16:43:00.802Z,91.20
2019-02-04T16:45:30.459Z,91.30
2019-02-04T16:47:59.733Z,91.20
2019-02-04T16:50:29.461Z,91.10
2019-02-04T16:53:09.684Z,91.30
2019-02-04T16:55:29.637Z,91.20
2019-02-04T16:57:58.920Z,91.30
2019-02-04T17:00:30.409Z,91.30
2019-02-04T17:02:59.635Z,91.20
2019-02-04T17:05:29.030Z,91.20
2019-02-04T17:07:58.285Z,91.30
2019-02-04T17:10:27.617Z,90.80
2019-02-04T17:12:56.912Z,91.00
2019-02-04T17:15:26.487Z,91.20
2019-02-04T17:17:55.680Z,91.20
2019-02-04T17:20:29.944Z,91.30
2019-02-04T17:22:59.326Z,91.30
2019-02-04T17:25:28.568Z,91.10
2019-02-04T17:27:57.761Z,90.90
2019-02-04T17:30:27.116Z,90.80
2019-02-04T17:32:56.304Z,90.60
2019-02-04T17:35:25.622Z,90.50
2019-02-04T17:37:54.824Z,90.40
2019-02-04T17:40:24.584Z,90.40
2019-02-04T17:42:54.051Z,90.60
2019-02-04T17:45:23.395Z,90.60
2019-02-04T17:47:53.432Z,90.80
2019-02-04T17:50:22.904Z,91.00
2019-02-04T17:52:52.381Z,91.30
2019-02-04T17:55:25.362Z,91.70
2019-02-04T17:57:54.953Z,92.00
2019-02-04T18:00:46.698Z,91.50
2019-02-04T18:03:15.956Z,91.10
2019-02-04T18:05:45.254Z,90.50
2019-02-04T18:08:14.801Z,90.60
2019-02-04T18:10:44.033Z,90.60
2019-02-04T18:13:13.256Z,90.40
2019-02-04T18:15:42.607Z,90.20
2019-02-04T18:18:12.184Z,90.20
2019-02-04T18:20:41.408Z,90.40
2019-02-04T18:23:11.375Z,90.00
2019-02-04T18:25:40.650Z,90.00
2019-02-04T18:28:09.968Z,89.20
2019-02-04T18:30:39.179Z,89.50
2019-02-04T18:33:07.990Z,89.30
2019-02-04T18:35:37.484Z,89.60
2019-02-04T18:38:06.736Z,90.00
2019-02-04T18:40:35.942Z,90.10
2019-02-04T18:43:05.213Z,90.30
2019-02-04T18:45:34.587Z,90.20
2019-02-04T18:48:04.164Z,90.30
2019-02-04T18:50:33.863Z,90.40
2019-02-04T18:53:03.179Z,90.50
2019-02-04T18:55:33.296Z,90.70
2019-02-04T18:58:02.511Z,90.70
2019-02-04T19:00:31.761Z,90.80
2019-02-04T19:03:01.935Z,91.00
2019-02-04T19:05:31.157Z,91.20
2019-02-04T19:08:00.344Z,91.30
2019-02-04T19:10:29.665Z,91.40
2019-02-04T19:12:58.973Z,91.60
2019-02-04T19:15:28.271Z,91.80
2019-02-04T19:18:00.964Z,92.00
2019-02-04T19:20:30.148Z,92.00
2019-02-04T19:22:59.352Z,92.10
2019-02-04T19:25:28.608Z,92.30
2019-02-04T19:27:57.850Z,92.40
2019-02-04T19:30:30.222Z,92.50
2019-02-04T19:32:59.728Z,92.60
2019-02-04T19:35:28.910Z,92.70
2019-02-04T19:37:58.149Z,92.80
2019-02-04T19:40:27.350Z,92.90
2019-02-04T19:42:56.665Z,93.00
2019-02-04T19:45:25.926Z,93.10
2019-02-04T19:47:55.809Z,93.10
2019-02-04T19:50:27.644Z,93.00
2019-02-04T19:52:56.893Z,93.10
2019-02-04T19:55:26.145Z,93.10
2019-02-04T19:57:55.490Z,93.00
2019-02-04T20:00:24.792Z,92.90
2019-02-04T20:02:54.014Z,92.90
2019-02-04T20:05:23.749Z,92.90
2019-02-04T20:07:52.972Z,92.90
2019-02-04T20:10:24.868Z,92.80
2019-02-04T20:12:54.204Z,92.90
2019-02-04T20:15:25.637Z,92.90
2019-02-04T20:17:54.969Z,92.90
2019-02-04T20:20:25.011Z,93.00
2019-02-04T20:22:54.208Z,93.10
2019-02-04T20:25:25.388Z,93.20
2019-02-04T20:27:54.700Z,93.40
2019-02-04T20:30:29.649Z,93.30
2019-02-04T20:32:59.180Z,93.40
2019-02-04T20:35:28.384Z,93.30
2019-02-04T20:37:57.858Z,93.30
2019-02-04T20:40:27.298Z,93.30
2019-02-04T20:42:56.672Z,93.40
2019-02-04T20:45:26.704Z,93.40
2019-02-04T20:47:55.944Z,93.30
2019-02-04T20:50:27.851Z,93.50
2019-02-04T20:52:57.149Z,93.50
2019-02-04T20:55:26.389Z,93.70
2019-02-04T20:57:55.721Z,94.00
2019-02-04T21:00:26.827Z,94.50
2019-02-04T21:02:56.165Z,94.80
2019-02-04T21:05:25.388Z,94.80
2019-02-04T21:07:54.740Z,94.80
2019-02-04T21:10:24.930Z,95.00
2019-02-04T21:12:54.476Z,95.20
2019-02-04T21:15:24.032Z,95.50
2019-02-04T21:17:53.452Z,95.90
2019-02-04T21:20:24.105Z,96.10
2019-02-04T21:22:53.407Z,96.20
2019-02-04T21:25:22.649Z,96.40
2019-02-04T21:27:52.224Z,96.60
2019-02-04T21:30:26.717Z,96.60
2019-02-04T21:32:55.973Z,96.80
2019-02-04T21:35:25.465Z,96.80
2019-02-04T21:37:54.663Z,96.80
2019-02-04T21:40:24.032Z,96.80
2019-02-04T21:42:53.233Z,96.70
2019-02-04T21:45:23.221Z,96.70
2019-02-04T21:47:52.426Z,96.70
2019-02-04T21:50:23.347Z,96.60
2019-02-04T21:52:53.005Z,96.60
2019-02-04T21:55:23.206Z,96.60
2019-02-04T21:57:53.023Z,97.00
2019-02-04T22:00:29.964Z,97.10
2019-02-04T22:02:59.204Z,97.40
2019-02-04T22:05:29.973Z,97.40
2019-02-04T22:07:59.189Z,97.50
2019-02-04T22:10:29.250Z,97.60
2019-02-04T22:12:58.627Z,97.60
2019-02-04T22:15:28.176Z,97.70
2019-02-04T22:17:57.556Z,98.00
2019-02-04T22:20:26.836Z,98.00
2019-02-04T22:22:56.098Z,98.00
2019-02-04T22:25:25.621Z,98.60
2019-02-04T22:27:54.829Z,98.80
2019-02-04T22:30:26.163Z,99.20
2019-02-04T22:32:55.358Z,99.50
2019-02-04T22:35:24.613Z,99.90
2019-02-04T22:37:53.832Z,99.90
2019-02-04T22:40:25.130Z,99.90
2019-02-04T22:42:54.721Z,99.90
2019-02-04T22:45:24.076Z,99.90
2019-02-04T22:47:56.869Z,99.90
2019-02-04T22:50:28.010Z,99.90
2019-02-04T22:52:57.688Z,99.90
2019-02-04T22:55:32.130Z,99.90
2019-02-04T22:57:57.900Z,99.90
2019-02-04T23:00:48.474Z,99.90
2019-02-04T23:03:19.159Z,99.90
2019-02-04T23:05:48.452Z,99.90
2019-02-04T23:08:17.872Z,99.90
2019-02-04T23:10:47.104Z,99.90
2019-02-04T23:13:16.329Z,99.90
2019-02-04T23:15:45.816Z,99.90
2019-02-04T23:18:15.340Z,99.90
2019-02-04T23:20:44.555Z,99.90
2019-02-04T23:23:13.766Z,99.90
2019-02-04T23:25:43.911Z,99.90
2019-02-04T23:28:13.277Z,99.90
2019-02-04T23:30:42.465Z,99.90
2019-02-04T23:33:11.689Z,99.90
2019-02-04T23:35:40.883Z,99.90
2019-02-04T23:38:10.144Z,99.90
2019-02-04T23:40:39.524Z,99.90
2019-02-04T23:43:08.752Z,99.90
2019-02-04T23:45:37.967Z,99.90
2019-02-04T23:48:07.583Z,99.90
2019-02-04T23:50:36.853Z,99.90
2019-02-04T23:53:06.488Z,99.90
2019-02-04T23:55:35.679Z,99.90
2019-02-04T23:58:05.560Z,99.90
